Time,TemperatureF,DewpointF,PressureIn,WindDirection,WindDirectionDegrees,WindSpeedMPH,WindSpeedGustMPH,Humidity,HourlyPrecipIn,Conditions,Clouds,dailyrainin,SoftwareType,DateUTC
2013-03-17 00:02:00,22.9,20.0,30.13,SSE,150,0.0,0.0,87,0.00,,,0.00,weatherlink.com 1.10,2013-03-17 04:02:00,
2013-03-17 00:17:00,24.0,20.0,30.14,SW,231,2.0,3.0,85,0.00,,,0.00,weatherlink.com 1.10,2013-03-17 04:17:00,
2013-03-17 00:32:00,25.3,21.0,30.14,WNW,284,0.0,3.0,82,0.00,,,0.00,weatherlink.com 1.10,2013-03-17 04:32:00,
2013-03-17 00:47:00,25.0,20.0,30.15,West,269,0.0,3.0,81,0.00,,,0.00,weatherlink.com 1.10,2013-03-17 04:47:00,
2013-03-17 01:02:00,23.9,20.0,30.15,WNW,282,0.0,1.0,83,0.00,,,0.00,weatherlink.com 1.10,2013-03-17 05:02:00,
2013-03-17 01:17:00,23.0,19.0,30.15,WNW,282,0.0,0.0,85,0.00,,,0.00,weatherlink.com 1.10,2013-03-17 05:17:00,
2013-03-17 01:32:00,23.1,20.0,30.15,WNW,282,0.0,0.0,86,0.00,,,0.00,weatherlink.com 1.10,2013-03-17 05:32:00,
2013-03-17 01:47:00,23.8,20.0,30.16,WNW,282,0.0,0.0,84,0.00,,,0.00,weatherlink.com 1.10,2013-03-17 05:47:00,
2013-03-17 02:02:00,24.4,20.0,30.16,WNW,282,0.0,0.0,83,0.00,,,0.00,weatherlink.com 1.10,2013-03-17 06:02:00,
2013-03-17 02:17:00,24.7,21.0,30.16,WNW,282,0.0,0.0,85,0.00,,,0.00,weatherlink.com 1.10,2013-03-17 06:17:00,
2013-03-17 02:32:00,24.9,21.0,30.16,WNW,282,0.0,0.0,84,0.00,,,0.00,weatherlink.com 1.10,2013-03-17 06:32:00,
2013-03-17 02:47:00,25.2,21.0,30.17,WNW,282,0.0,0.0,83,0.00,,,0.00,weatherlink.com 1.10,2013-03-17 06:47:00,
2013-03-17 03:02:00,25.3,21.0,30.17,WNW,282,0.0,0.0,85,0.00,,,0.00,weatherlink.com 1.10,2013-03-17 07:02:00,
2013-03-17 03:17:00,25.4,21.0,30.17,WNW,282,0.0,0.0,84,0.00,,,0.00,weatherlink.com 1.10,2013-03-17 07:17:00,
2013-03-17 03:32:00,25.5,21.0,30.18,WNW,282,0.0,0.0,84,0.00,,,0.00,weatherlink.com 1.10,2013-03-17 07:32:00,
2013-03-17 03:47:00,25.7,21.0,30.18,WNW,282,0.0,0.0,83,0.00,,,0.00,weatherlink.com 1.10,2013-03-17 07:47:00,
2013-03-17 04:02:00,25.1,21.0,30.18,WNW,282,0.0,0.0,84,0.00,,,0.00,weatherlink.com 1.10,2013-03-17 08:02:00,
2013-03-17 04:17:00,25.0,21.0,30.18,WNW,282,0.0,0.0,85,0.00,,,0.00,weatherlink.com 1.10,2013-03-17 08:17:00,
2013-03-17 04:32:00,24.9,21.0,30.18,WNW,282,0.0,0.0,86,0.00,,,0.00,weatherlink.com 1.10,2013-03-17 08:32:00,
2013-03-17 04:47:00,24.6,21.0,30.18,SE,134,0.0,0.0,87,0.00,,,0.00,weatherlink.com 1.10,2013-03-17 08:47:00,
2013-03-17 05:02:00,23.4,20.0,30.18,SE,134,0.0,0.0,88,0.00,,,0.00,weatherlink.com 1.10,2013-03-17 09:02:00,
2013-03-17 05:17:00,22.5,20.0,30.18,SE,134,0.0,0.0,88,0.00,,,0.00,weatherlink.com 1.10,2013-03-17 09:17:00,
2013-03-17 05:32:00,22.0,19.0,30.18,SE,134,0.0,0.0,89,0.00,,,0.00,weatherlink.com 1.10,2013-03-17 09:32:00,
2013-03-17 05:47:00,21.2,19.0,30.19,SE,134,0.0,0.0,90,0.00,,,0.00,weatherlink.com 1.10,2013-03-17 09:47:00,
2013-03-17 06:03:00,20.5,18.0,30.20,SE,134,0.0,0.0,91,0.00,,,0.00,weatherlink.com 1.10,2013-03-17 10:03:00,
2013-03-17 06:18:00,21.1,19.0,30.21,South,170,0.0,4.0,91,0.00,,,0.00,weatherlink.com 1.10,2013-03-17 10:18:00,
2013-03-17 06:33:00,22.5,20.0,30.22,SSE,164,0.0,2.0,89,0.00,,,0.00,weatherlink.com 1.10,2013-03-17 10:33:00,
2013-03-17 06:48:00,23.5,19.0,30.22,South,170,0.0,2.0,82,0.00,,,0.00,weatherlink.com 1.10,2013-03-17 10:48:00,
2013-03-17 07:03:00,22.6,19.0,30.23,South,170,0.0,0.0,85,0.00,,,0.00,weatherlink.com 1.10,2013-03-17 11:03:00,
2013-03-17 07:18:00,21.8,18.0,30.23,NW,308,0.0,0.0,85,0.00,,,0.00,weatherlink.com 1.10,2013-03-17 11:18:00,
2013-03-17 07:33:00,21.7,18.0,30.25,South,190,0.0,1.0,86,0.00,,,0.00,weatherlink.com 1.10,2013-03-17 11:33:00,
2013-03-17 07:48:00,21.8,17.0,30.26,NNW,340,0.0,2.0,81,0.00,,,0.00,weatherlink.com 1.10,2013-03-17 11:48:00,
2013-03-17 08:03:00,21.2,17.0,30.27,SW,226,0.0,1.0,83,0.00,,,0.00,weatherlink.com 1.10,2013-03-17 12:03:00,
2013-03-17 08:18:00,20.7,16.0,30.28,South,188,0.0,1.0,82,0.00,,,0.00,weatherlink.com 1.10,2013-03-17 12:18:00,
2013-03-17 08:33:00,21.3,15.0,30.29,ESE,102,1.0,2.0,78,0.00,,,0.00,weatherlink.com 1.10,2013-03-17 12:33:00,
2013-03-17 08:48:00,21.6,16.0,30.29,SSE,156,0.0,3.0,78,0.00,,,0.00,weatherlink.com 1.10,2013-03-17 12:48:00,
2013-03-17 09:03:00,22.8,15.0,30.31,East,81,0.0,2.0,72,0.00,,,0.00,weatherlink.com 1.10,2013-03-17 13:03:00,
2013-03-17 09:18:00,23.6,15.0,30.31,North,355,0.0,5.0,70,0.00,,,0.00,weatherlink.com 1.10,2013-03-17 13:18:00,
2013-03-17 09:33:00,24.3,15.0,30.32,East,96,0.0,4.0,68,0.00,,,0.00,weatherlink.com 1.10,2013-03-17 13:33:00,
2013-03-17 09:48:00,25.0,14.0,30.32,SW,217,1.0,5.0,64,0.00,,,0.00,weatherlink.com 1.10,2013-03-17 13:48:00,
2013-03-17 10:03:00,25.6,15.0,30.32,ESE,113,1.0,7.0,65,0.00,,,0.00,weatherlink.com 1.10,2013-03-17 14:03:00,
2013-03-17 10:18:00,26.1,15.0,30.32,ESE,107,1.0,5.0,64,0.00,,,0.00,weatherlink.com 1.10,2013-03-17 14:18:00,
2013-03-17 10:33:00,25.6,13.0,30.32,NW,311,0.0,5.0,60,0.00,,,0.00,weatherlink.com 1.10,2013-03-17 14:33:00,
2013-03-17 10:48:00,26.6,15.0,30.32,NW,312,1.0,6.0,62,0.00,,,0.00,weatherlink.com 1.10,2013-03-17 14:48:00,
2013-03-17 11:03:00,28.7,17.0,30.32,NNW,334,1.0,4.0,61,0.00,,,0.00,weatherlink.com 1.10,2013-03-17 15:03:00,
2013-03-17 11:18:00,28.8,16.0,30.33,East,91,0.0,5.0,59,0.00,,,0.00,weatherlink.com 1.10,2013-03-17 15:18:00,
2013-03-17 11:33:00,27.5,16.0,30.34,ESE,116,3.0,5.0,62,0.00,,,0.00,weatherlink.com 1.10,2013-03-17 15:33:00,
2013-03-17 11:48:00,28.3,15.0,30.34,SSE,161,1.0,5.0,59,0.00,,,0.00,weatherlink.com 1.10,2013-03-17 15:48:00,
2013-03-17 12:03:00,29.1,15.0,30.34,SSE,158,2.0,4.0,57,0.00,,,0.00,weatherlink.com 1.10,2013-03-17 16:03:00,
2013-03-17 12:18:00,28.4,14.0,30.33,NE,51,2.0,3.0,56,0.00,,,0.00,weatherlink.com 1.10,2013-03-17 16:18:00,
2013-03-17 12:33:00,28.9,15.0,30.34,ENE,63,1.0,4.0,57,0.00,,,0.00,weatherlink.com 1.10,2013-03-17 16:33:00,
2013-03-17 12:48:00,28.8,15.0,30.34,SE,143,2.0,5.0,57,0.00,,,0.00,weatherlink.com 1.10,2013-03-17 16:48:00,
2013-03-17 13:03:00,29.3,16.0,30.34,East,89,3.0,5.0,58,0.01,,,0.01,weatherlink.com 1.10,2013-03-17 17:03:00,
2013-03-17 13:18:00,29.6,16.0,30.34,ESE,103,3.0,5.0,56,0.01,,,0.01,weatherlink.com 1.10,2013-03-17 17:18:00,
2013-03-17 13:33:00,29.3,16.0,30.33,South,178,3.0,5.0,59,0.01,,,0.01,weatherlink.com 1.10,2013-03-17 17:33:00,
2013-03-17 13:48:00,29.0,17.0,30.33,ESE,123,0.0,6.0,61,0.01,,,0.01,weatherlink.com 1.10,2013-03-17 17:48:00,
2013-03-17 14:03:00,30.5,18.0,30.33,WNW,290,0.0,3.0,59,0.00,,,0.01,weatherlink.com 1.10,2013-03-17 18:03:00,
2013-03-17 14:18:00,30.3,17.0,30.33,South,181,0.0,4.0,58,0.00,,,0.01,weatherlink.com 1.10,2013-03-17 18:18:00,
2013-03-17 14:33:00,30.7,17.0,30.32,NNW,333,1.0,6.0,58,0.00,,,0.01,weatherlink.com 1.10,2013-03-17 18:33:00,
2013-03-17 14:48:00,31.6,20.0,30.32,SSW,200,4.0,8.0,62,0.00,,,0.01,weatherlink.com 1.10,2013-03-17 18:48:00,
2013-03-17 15:03:00,31.4,18.0,30.31,East,86,5.0,8.0,58,0.00,,,0.01,weatherlink.com 1.10,2013-03-17 19:03:00,
2013-03-17 15:18:00,30.3,17.0,30.31,ESE,121,2.0,7.0,59,0.00,,,0.01,weatherlink.com 1.10,2013-03-17 19:18:00,
2013-03-17 15:33:00,30.3,18.0,30.30,WSW,240,1.0,4.0,61,0.00,,,0.01,weatherlink.com 1.10,2013-03-17 19:33:00,
2013-03-17 15:48:00,31.2,17.0,30.29,ESE,123,2.0,7.0,55,0.01,,,0.02,weatherlink.com 1.10,2013-03-17 19:48:00,
2013-03-17 16:03:00,30.4,16.0,30.28,ENE,76,2.0,8.0,56,0.01,,,0.02,weatherlink.com 1.10,2013-03-17 20:03:00,
2013-03-17 16:18:00,30.9,18.0,30.28,SSE,153,5.0,6.0,59,0.01,,,0.02,weatherlink.com 1.10,2013-03-17 20:18:00,
2013-03-17 16:33:00,31.5,21.0,30.27,ENE,74,0.0,8.0,65,0.01,,,0.02,weatherlink.com 1.10,2013-03-17 20:33:00,
2013-03-17 16:48:00,30.2,16.0,30.27,NNW,331,2.0,8.0,55,0.00,,,0.02,weatherlink.com 1.10,2013-03-17 20:48:00,
2013-03-17 17:03:00,30.5,18.0,30.27,SE,142,2.0,7.0,59,0.00,,,0.02,weatherlink.com 1.10,2013-03-17 21:03:00,
2013-03-17 17:18:00,29.7,14.0,30.27,SSE,161,3.0,5.0,52,0.00,,,0.02,weatherlink.com 1.10,2013-03-17 21:18:00,
2013-03-17 17:33:00,30.1,15.0,30.27,SE,141,1.0,7.0,53,0.00,,,0.02,weatherlink.com 1.10,2013-03-17 21:33:00,
2013-03-17 17:48:00,29.0,14.0,30.27,SSE,166,3.0,7.0,53,0.00,,,0.02,weatherlink.com 1.10,2013-03-17 21:48:00,
2013-03-17 18:03:00,28.8,13.0,30.27,ENE,61,1.0,5.0,53,0.00,,,0.02,weatherlink.com 1.10,2013-03-17 22:03:00,
2013-03-17 18:18:00,28.9,15.0,30.28,SE,129,1.0,4.0,57,0.00,,,0.02,weatherlink.com 1.10,2013-03-17 22:18:00,
2013-03-17 18:33:00,28.2,14.0,30.28,East,101,0.0,7.0,56,0.00,,,0.02,weatherlink.com 1.10,2013-03-17 22:33:00,
2013-03-17 18:48:00,27.9,14.0,30.27,East,80,0.0,3.0,56,0.00,,,0.02,weatherlink.com 1.10,2013-03-17 22:48:00,
2013-03-17 19:03:00,27.4,14.0,30.28,East,99,0.0,4.0,57,0.00,,,0.02,weatherlink.com 1.10,2013-03-17 23:03:00,
2013-03-17 19:18:00,26.8,15.0,30.28,ESE,118,0.0,7.0,61,0.00,,,0.02,weatherlink.com 1.10,2013-03-17 23:18:00,
2013-03-17 19:33:00,26.3,15.0,30.27,NNW,331,2.0,8.0,63,0.00,,,0.02,weatherlink.com 1.10,2013-03-17 23:33:00,
2013-03-17 19:48:00,25.9,15.0,30.27,ESE,109,1.0,3.0,64,0.00,,,0.02,weatherlink.com 1.10,2013-03-17 23:48:00,
2013-03-17 20:03:00,25.5,15.0,30.28,ENE,58,2.0,5.0,65,0.00,,,0.02,weatherlink.com 1.10,2013-03-18 00:03:00,
2013-03-17 20:18:00,25.2,15.0,30.28,ENE,69,0.0,4.0,66,0.00,,,0.02,weatherlink.com 1.10,2013-03-18 00:18:00,
2013-03-17 20:33:00,24.8,15.0,30.27,East,96,0.0,3.0,67,0.00,,,0.02,weatherlink.com 1.10,2013-03-18 00:33:00,
2013-03-17 20:48:00,24.5,16.0,30.27,ENE,72,1.0,2.0,69,0.00,,,0.02,weatherlink.com 1.10,2013-03-18 00:48:00,
2013-03-17 21:03:00,24.3,16.0,30.26,East,97,0.0,2.0,71,0.00,,,0.02,weatherlink.com 1.10,2013-03-18 01:03:00,
2013-03-17 21:18:00,24.4,16.0,30.27,SE,141,0.0,3.0,71,0.00,,,0.02,weatherlink.com 1.10,2013-03-18 01:18:00,
2013-03-17 21:33:00,24.1,17.0,30.26,SSE,150,0.0,7.0,73,0.00,,,0.02,weatherlink.com 1.10,2013-03-18 01:33:00,
2013-03-17 21:48:00,23.9,16.0,30.26,NE,44,0.0,3.0,73,0.00,,,0.02,weatherlink.com 1.10,2013-03-18 01:48:00,
2013-03-17 22:03:00,23.6,17.0,30.26,East,95,1.0,3.0,75,0.00,,,0.02,weatherlink.com 1.10,2013-03-18 02:03:00,
2013-03-17 22:18:00,23.5,17.0,30.25,SE,127,2.0,4.0,76,0.00,,,0.02,weatherlink.com 1.10,2013-03-18 02:18:00,
2013-03-17 22:33:00,23.2,17.0,30.25,ESE,109,2.0,5.0,77,0.00,,,0.02,weatherlink.com 1.10,2013-03-18 02:33:00,
2013-03-17 22:48:00,22.9,17.0,30.24,ENE,57,1.0,2.0,77,0.00,,,0.02,weatherlink.com 1.10,2013-03-18 02:48:00,
2013-03-17 23:03:00,22.7,17.0,30.23,East,101,1.0,6.0,78,0.00,,,0.02,weatherlink.com 1.10,2013-03-18 03:03:00,
2013-03-17 23:18:00,22.7,17.0,30.23,ENE,62,1.0,6.0,78,0.00,,,0.02,weatherlink.com 1.10,2013-03-18 03:18:00,
2013-03-17 23:33:00,22.7,17.0,30.22,ESE,116,1.0,3.0,79,0.00,,,0.02,weatherlink.com 1.10,2013-03-18 03:33:00,
2013-03-17 23:48:00,22.8,17.0,30.21,North,5,0.0,5.0,77,0.00,,,0.02,weatherlink.com 1.10,2013-03-18 03:48:00,